Time;durP1;ratioP1;P1;durP2;ratioP2;P2;SDS_P1;SDS_P2;PMS_P1;PMS_P2;Temp;Humidity;BMP_temperature;BMP_pressure;BME280_temperature;BME280_humidity;BME280_pressure;Samples;Min_cycle;Max_cycle;Signal;HPM_P1;HPM_P2
2022/10/21 00:00:17;;;;;;;16.08;8.25;;;13.30;99.90;;;;;;5060118;28;20037;-68
2022/10/21 00:02:44;;;;;;;18.90;7.75;;;13.30;99.90;;;;;;5050296;28;20049;-69
2022/10/21 00:05:20;;;;;;;22.25;8.95;;;13.30;99.90;;;;;;5040143;28;20113;-69
2022/10/21 00:07:46;;;;;;;20.52;9.20;;;13.30;99.90;;;;;;5046985;28;20045;-70
2022/10/21 00:10:25;;;;;;;17.05;9.68;;;13.30;99.90;;;;;;5047905;28;20191;-69
2022/10/21 00:13:02;;;;;;;17.50;8.48;;;13.30;99.90;;;;;;5048776;28;20062;-69
2022/10/21 00:15:30;;;;;;;19.83;9.30;;;13.30;99.90;;;;;;5061006;28;20045;-69
2022/10/21 00:18:08;;;;;;;16.02;8.57;;;13.30;99.90;;;;;;5041318;28;20041;-69
2022/10/21 00:20:34;;;;;;;16.70;9.20;;;13.30;99.90;;;;;;5034243;28;20056;-69
2022/10/21 00:23:05;;;;;;;21.08;9.90;;;13.30;99.90;;;;;;5034722;28;20036;-69
2022/10/21 00:25:30;;;;;;;18.58;10.10;;;13.30;99.90;;;;;;5051541;28;20052;-69
2022/10/21 00:28:01;;;;;;;;;;;13.20;99.90;;;;;;5040111;28;20045;-68
2022/10/21 00:30:27;;;;;;;15.85;9.68;;;13.30;99.90;;;;;;5045877;28;19921;-70
2022/10/21 00:32:53;;;;;;;;;;;13.20;99.90;;;;;;5043144;28;20040;-69
2022/10/21 00:35:18;;;;;;;18.67;8.98;;;13.20;99.90;;;;;;5027309;28;19917;-70
2022/10/21 00:37:44;;;;;;;;;;;13.20;99.90;;;;;;5048246;28;20025;-70
2022/10/21 00:40:10;;;;;;;14.60;8.35;;;13.20;99.90;;;;;;5025257;28;19924;-68
2022/10/21 00:42:37;;;;;;;;;;;13.20;99.90;;;;;;5028737;28;20044;-69
2022/10/21 00:45:06;;;;;;;10.90;6.47;;;13.20;99.90;;;;;;5047470;28;19927;-68
2022/10/21 00:47:42;;;;;;;10.73;6.60;;;13.20;99.90;;;;;;5046510;28;20485;-68
2022/10/21 00:50:23;;;;;;;8.73;5.60;;;13.20;99.90;;;;;;5025769;28;20512;-69
2022/10/21 00:52:49;;;;;;;10.40;5.85;;;13.20;99.90;;;;;;5027834;28;20069;-68
2022/10/21 00:55:15;;;;;;;11.90;5.30;;;13.20;99.90;;;;;;5045636;28;20044;-69
2022/10/21 00:57:41;;;;;;;;;;;13.20;99.90;;;;;;5032912;28;20068;-68
2022/10/21 01:00:07;;;;;;;10.68;5.10;;;13.20;99.90;;;;;;5031538;28;19960;-69
2022/10/21 01:02:32;;;;;;;11.00;5.43;;;13.10;99.90;;;;;;5025831;28;20071;-69
2022/10/21 01:05:00;;;;;;;;;;;13.20;99.90;;;;;;5044755;28;20037;-69
2022/10/21 01:07:26;;;;;;;11.98;6.30;;;13.20;99.90;;;;;;5044262;28;20194;-70
2022/10/21 01:09:51;;;;;;;11.02;6.55;;;13.20;99.90;;;;;;5036960;28;20123;-69
2022/10/21 01:12:24;;;;;;;;;;;13.20;99.90;;;;;;5037091;28;20599;-68
2022/10/21 01:15:06;;;;;;;12.20;7.25;;;13.10;99.90;;;;;;5042805;28;20431;-67
2022/10/21 01:18:06;;;;;;;12.68;7.50;;;13.20;99.90;;;;;;5046617;28;20063;-68
2022/10/21 01:20:43;;;;;;;17.48;7.47;;;13.10;99.90;;;;;;5038545;28;20040;-68
2022/10/21 01:23:35;;;;;;;12.68;7.05;;;13.10;99.90;;;;;;5041381;28;20052;-69
2022/10/21 01:26:01;;;;;;;10.25;5.80;;;13.10;99.90;;;;;;5027822;28;20036;-69
2022/10/21 01:28:45;;;;;;;;;;;13.10;99.90;;;;;;5039261;28;20052;-68
2022/10/21 01:31:43;;;;;;;12.70;6.38;;;13.10;99.90;;;;;;5044696;28;20372;-69
2022/10/21 01:34:36;;;;;;;10.40;6.43;;;13.20;99.90;;;;;;5031571;28;20505;-69
2022/10/21 01:37:08;;;;;;;12.57;6.03;;;13.20;99.90;;;;;;5044009;28;20051;-68
2022/10/21 01:39:44;;;;;;;9.48;6.03;;;13.20;99.90;;;;;;5033266;28;20112;-69
2022/10/21 01:42:26;;;;;;;8.40;4.47;;;13.20;99.90;;;;;;5045294;28;20094;-69
2022/10/21 01:45:08;;;;;;;10.18;4.93;;;13.20;99.90;;;;;;5044641;28;20412;-68
2022/10/21 01:47:38;;;;;;;6.53;4.05;;;13.20;99.90;;;;;;5045644;28;20041;-69
2022/10/21 01:50:09;;;;;;;12.52;4.32;;;13.30;99.90;;;;;;5030809;28;20033;-69
2022/10/21 01:52:36;;;;;;;17.95;6.32;;;13.30;99.90;;;;;;5025361;28;20240;-69
2022/10/21 01:55:05;;;;;;;11.43;4.13;;;13.40;99.90;;;;;;5043506;28;20080;-69
2022/10/21 01:57:42;;;;;;;6.18;4.10;;;13.30;99.90;;;;;;5043335;28;20049;-68
2022/10/21 02:00:08;;;;;;;7.25;3.75;;;13.30;99.90;;;;;;5041111;28;20100;-68
2022/10/21 02:02:41;;;;;;;9.43;3.90;;;13.40;99.90;;;;;;5037040;28;20673;-69
2022/10/21 02:05:27;;;;;;;8.98;3.40;;;13.40;99.90;;;;;;5035714;28;20483;-69
2022/10/21 02:07:54;;;;;;;5.05;3.38;;;13.40;99.90;;;;;;5028140;28;20473;-69
2022/10/21 02:10:21;;;;;;;5.88;2.97;;;13.40;99.90;;;;;;5029903;28;20072;-69
2022/10/21 02:12:50;;;;;;;12.10;3.78;;;13.40;99.90;;;;;;5040373;28;20045;-69
2022/10/21 02:15:17;;;;;;;5.40;2.33;;;13.50;99.90;;;;;;5045394;28;20801;-69
2022/10/21 02:17:51;;;;;;;3.67;2.58;;;13.50;99.90;;;;;;5045226;28;20052;-69
2022/10/21 02:20:17;;;;;;;6.63;2.50;;;13.40;99.90;;;;;;5043509;28;20033;-70
2022/10/21 02:22:45;;;;;;;9.35;2.78;;;13.40;99.90;;;;;;5040639;28;20041;-68
2022/10/21 02:25:24;;;;;;;5.82;2.67;;;13.40;99.90;;;;;;5036026;28;20558;-68
2022/10/21 02:27:51;;;;;;;4.18;2.15;;;13.40;99.90;;;;;;5041480;28;20586;-69
2022/10/21 02:30:18;;;;;;;4.65;2.67;;;13.40;99.90;;;;;;5031183;28;20037;-69
2022/10/21 02:32:43;;;;;;;4.72;2.90;;;13.40;99.90;;;;;;5045085;28;20595;-68
2022/10/21 02:35:24;;;;;;;;;;;13.40;99.90;;;;;;5045075;28;20036;-69
2022/10/21 02:37:58;;;;;;;6.18;4.00;;;13.30;99.90;;;;;;5043831;28;19986;-69
2022/10/21 02:40:43;;;;;;;10.50;5.82;;;13.20;99.90;;;;;;5029802;28;20122;-69
2022/10/21 02:43:18;;;;;;;9.07;6.97;;;13.20;99.90;;;;;;5025121;28;20049;-69
2022/10/21 02:45:46;;;;;;;9.18;6.68;;;13.10;99.90;;;;;;5034772;28;20684;-69
2022/10/21 02:48:12;;;;;;;9.27;6.43;;;13.00;99.90;;;;;;5044123;28;20060;-69
2022/10/21 02:50:37;;;;;;;;;;;13.00;99.90;;;;;;5035995;28;20042;-70
2022/10/21 02:53:03;;;;;;;9.07;4.78;;;12.90;99.90;;;;;;5025235;28;20408;-69
2022/10/21 02:55:29;;;;;;;;;;;12.80;99.90;;;;;;5031531;28;20118;-68
2022/10/21 02:57:54;;;;;;;5.97;3.17;;;12.80;99.90;;;;;;5029395;28;19935;-68
2022/10/21 03:00:20;;;;;;;;;;;12.90;99.90;;;;;;5032227;28;20120;-69
2022/10/21 03:02:46;;;;;;;6.10;4.38;;;12.90;99.90;;;;;;5025600;28;20312;-69
2022/10/21 03:05:11;;;;;;;;;;;12.80;99.90;;;;;;5027803;28;20129;-69
2022/10/21 03:07:38;;;;;;;4.78;3.33;;;12.70;99.90;;;;;;5044108;28;19929;-69
2022/10/21 03:10:04;;;;;;;5.10;3.90;;;12.70;99.90;;;;;;5034035;28;20123;-69
2022/10/21 03:12:30;;;;;;;5.68;4.10;;;12.70;99.90;;;;;;5024793;28;20155;-69
2022/10/21 03:14:55;;;;;;;;;;;12.70;99.90;;;;;;5025142;28;20037;-69
2022/10/21 03:17:21;;;;;;;7.22;3.85;;;12.70;99.90;;;;;;5044120;28;20435;-69
2022/10/21 03:19:46;;;;;;;10.18;3.33;;;12.70;99.90;;;;;;5037257;28;20045;-69
2022/10/21 03:22:12;;;;;;;5.00;2.75;;;12.70;99.90;;;;;;5036678;28;20048;-69
2022/10/21 03:24:38;;;;;;;;;;;12.70;99.90;;;;;;5043701;28;20041;-69
2022/10/21 03:27:04;;;;;;;5.07;2.83;;;12.70;99.90;;;;;;5035765;28;19916;-69
2022/10/21 03:29:29;;;;;;;;;;;12.80;99.90;;;;;;5044594;28;20500;-69
2022/10/21 03:31:55;;;;;;;7.57;2.35;;;12.80;99.90;;;;;;5029295;28;19920;-70
2022/10/21 03:34:20;;;;;;;;;;;12.80;99.90;;;;;;5045170;28;20665;-69
2022/10/21 03:36:46;;;;;;;5.10;2.80;;;12.80;99.90;;;;;;5031685;28;19927;-69
2022/10/21 03:39:12;;;;;;;;;;;12.80;99.90;;;;;;5037137;28;20040;-69
2022/10/21 03:41:38;;;;;;;3.53;2.63;;;12.80;99.90;;;;;;5034908;28;19921;-69
2022/10/21 03:44:03;;;;;;;;;;;12.80;99.90;;;;;;5046051;28;20074;-68
2022/10/21 03:46:29;;;;;;;5.95;2.40;;;12.80;99.90;;;;;;5036189;28;19924;-69
2022/10/21 03:48:55;;;;;;;;;;;12.80;99.90;;;;;;5024175;28;20046;-69
2022/10/21 03:51:20;;;;;;;3.97;2.42;;;12.70;99.90;;;;;;5024956;28;19923;-69
2022/10/21 03:53:46;;;;;;;6.15;2.30;;;12.80;99.90;;;;;;5027703;28;20103;-68
2022/10/21 03:56:12;;;;;;;;;;;12.80;99.90;;;;;;5037666;28;20037;-68
2022/10/21 03:58:38;;;;;;;5.30;3.13;;;12.80;99.90;;;;;;5046055;28;19979;-69
2022/10/21 04:01:03;;;;;;;;;;;12.80;99.90;;;;;;5045830;28;20042;-68
2022/10/21 04:03:29;;;;;;;5.28;2.80;;;12.80;99.90;;;;;;5047358;28;20018;-69
2022/10/21 04:05:55;;;;;;;;;;;12.80;99.90;;;;;;5052732;28;20043;-65
2022/10/21 04:08:20;;;;;;;5.80;2.67;;;12.80;99.90;;;;;;5046114;28;19924;-67
2022/10/21 04:10:46;;;;;;;;;;;12.80;99.90;;;;;;5036338;28;20049;-66
2022/10/21 04:13:12;;;;;;;6.65;3.08;;;12.80;99.90;;;;;;5047594;28;19974;-65
2022/10/21 04:15:37;;;;;;;;;;;12.80;99.90;;;;;;5041673;28;20897;-67
2022/10/21 04:18:05;;;;;;;3.10;2.20;;;12.70;99.90;;;;;;5047018;28;20007;-69
2022/10/21 04:20:30;;;;;;;5.22;2.55;;;12.70;99.90;;;;;;5046340;28;20045;-68
2022/10/21 04:22:56;;;;;;;;;;;12.70;99.90;;;;;;5034982;28;20040;-70
2022/10/21 04:25:21;;;;;;;3.78;2.72;;;12.60;99.90;;;;;;5057202;28;19969;-67
2022/10/21 04:27:47;;;;;;;;;;;12.60;99.90;;;;;;5038323;28;20041;-68
2022/10/21 04:30:12;;;;;;;4.43;2.55;;;12.60;99.90;;;;;;5033082;28;19917;-66
2022/10/21 04:32:38;;;;;;;;;;;12.60;99.90;;;;;;5034004;28;20456;-67
2022/10/21 04:35:04;;;;;;;7.75;2.83;;;12.60;99.90;;;;;;5027104;28;20062;-66
2022/10/21 04:37:30;;;;;;;;;;;12.60;99.90;;;;;;5035631;28;20045;-67
2022/10/21 04:39:56;;;;;;;6.53;3.13;;;12.60;99.90;;;;;;5038506;28;20000;-66
2022/10/21 04:42:22;;;;;;;5.53;2.90;;;12.60;99.90;;;;;;5047653;28;20110;-67
2022/10/21 04:44:48;;;;;;;5.80;2.53;;;12.60;99.90;;;;;;5038607;28;20040;-68
2022/10/21 04:47:13;;;;;;;;;;;12.50;99.90;;;;;;5036633;28;20037;-68
2022/10/21 04:49:39;;;;;;;9.73;2.67;;;12.60;99.90;;;;;;5043556;28;19944;-69
2022/10/21 04:52:04;;;;;;;;;;;12.50;99.90;;;;;;5042581;28;20780;-69
2022/10/21 04:54:30;;;;;;;3.88;2.13;;;12.50;99.90;;;;;;5040643;28;20571;-67
2022/10/21 04:56:56;;;;;;;;;;;12.40;99.90;;;;;;5037758;28;20432;-68
2022/10/21 04:59:22;;;;;;;6.10;2.63;;;12.40;99.90;;;;;;5047156;28;20606;-67
2022/10/21 05:01:47;;;;;;;;;;;12.40;99.90;;;;;;5063893;28;20068;-67
2022/10/21 05:04:13;;;;;;;4.18;2.10;;;12.40;99.90;;;;;;5039262;28;19920;-70
2022/10/21 05:06:38;;;;;;;;;;;12.40;99.90;;;;;;5035550;28;20131;-67
2022/10/21 05:09:05;;;;;;;13.20;3.58;;;12.40;99.90;;;;;;5042727;28;19932;-67
2022/10/21 05:11:31;;;;;;;3.78;2.63;;;12.30;99.90;;;;;;5045657;28;20037;-67
2022/10/21 05:13:56;;;;;;;;;;;12.30;99.90;;;;;;5045936;28;20106;-67
2022/10/21 05:16:22;;;;;;;5.35;2.40;;;12.30;99.90;;;;;;5041640;28;19990;-68
2022/10/21 05:18:49;;;;;;;5.40;2.03;;;12.30;99.90;;;;;;5033802;28;20043;-68
2022/10/21 05:21:14;;;;;;;4.50;2.40;;;12.30;99.90;;;;;;5044900;28;20045;-68
2022/10/21 05:23:40;;;;;;;;;;;12.20;99.90;;;;;;5051135;28;20037;-68
2022/10/21 05:26:06;;;;;;;8.48;2.35;;;12.30;99.90;;;;;;5052823;28;20012;-68
2022/10/21 05:28:32;;;;;;;;;;;12.20;99.90;;;;;;5032180;28;20452;-69
2022/10/21 05:30:57;;;;;;;9.57;2.55;;;12.20;99.90;;;;;;5022966;28;19985;-68
2022/10/21 05:33:23;;;;;;;;;;;12.20;99.90;;;;;;5035956;28;20131;-69
2022/10/21 05:35:56;;;;;;;8.15;2.97;;;12.10;99.90;;;;;;5037388;28;19963;-68
2022/10/21 05:38:22;;;;;;;11.05;2.22;;;12.10;99.90;;;;;;5039110;28;20156;-69
2022/10/21 05:40:48;;;;;;;;;;;12.10;99.90;;;;;;5044788;28;20174;-68
2022/10/21 05:43:13;;;;;;;4.22;1.88;;;12.10;99.90;;;;;;5038971;28;19982;-68
2022/10/21 05:45:39;;;;;;;;;;;12.10;99.90;;;;;;5026133;28;20042;-68
2022/10/21 05:48:05;;;;;;;6.28;2.22;;;12.10;99.90;;;;;;5027194;28;19948;-68
2022/10/21 05:50:30;;;;;;;;;;;12.10;99.90;;;;;;5032728;28;20064;-68
2022/10/21 05:52:57;;;;;;;7.15;2.97;;;12.20;99.90;;;;;;5030625;28;19927;-68
2022/10/21 05:55:23;;;;;;;14.48;2.97;;;12.30;99.90;;;;;;5043011;28;20044;-68
2022/10/21 05:57:49;;;;;;;;;;;12.20;99.90;;;;;;5042129;28;20049;-68
2022/10/21 06:00:14;;;;;;;11.05;2.40;;;12.30;99.90;;;;;;5042860;28;20376;-68
2022/10/21 06:02:40;;;;;;;;;;;12.20;99.90;;;;;;5043229;28;20098;-68
2022/10/21 06:05:06;;;;;;;4.25;2.85;;;12.30;99.90;;;;;;5045492;28;19966;-68
2022/10/21 06:07:32;;;;;;;6.93;2.60;;;12.30;99.90;;;;;;5044470;28;20044;-68
2022/10/21 06:09:58;;;;;;;;;;;12.30;99.90;;;;;;5033908;28;20511;-68
2022/10/21 06:12:23;;;;;;;7.60;2.55;;;12.30;99.90;;;;;;5037076;28;20003;-68
2022/10/21 06:14:49;;;;;;;;;;;12.30;99.90;;;;;;5029309;28;20107;-68
2022/10/21 06:17:15;;;;;;;9.88;2.97;;;12.30;99.90;;;;;;5024865;28;19974;-68
2022/10/21 06:19:40;;;;;;;;;;;12.40;99.90;;;;;;5032770;28;20033;-68
2022/10/21 06:22:06;;;;;;;6.85;2.70;;;12.40;99.90;;;;;;5025296;28;19917;-68
2022/10/21 06:24:32;;;;;;;;;;;12.50;99.90;;;;;;5033462;28;20028;-68
2022/10/21 06:26:57;;;;;;;10.52;2.90;;;12.50;99.90;;;;;;5035652;28;19943;-68
2022/10/21 06:29:23;;;;;;;;;;;12.50;99.90;;;;;;5039325;28;20041;-69
2022/10/21 06:31:48;;;;;;;6.93;2.40;;;12.60;99.90;;;;;;5043241;28;20408;-68
2022/10/21 06:34:14;;;;;;;;;;;12.60;99.90;;;;;;5045271;28;20711;-68
2022/10/21 06:36:40;;;;;;;3.60;2.47;;;12.70;99.90;;;;;;5044482;28;19920;-68
2022/10/21 06:39:06;;;;;;;;;;;12.80;99.90;;;;;;5040413;28;20048;-69
2022/10/21 06:41:31;;;;;;;8.60;2.50;;;12.80;99.90;;;;;;5028596;28;19924;-68
2022/10/21 06:43:57;;;;;;;;;;;12.80;99.90;;;;;;5028740;28;20052;-69
2022/10/21 06:46:23;;;;;;;8.52;2.97;;;12.90;99.90;;;;;;5043428;28;19921;-68
2022/10/21 06:48:49;;;;;;;18.95;3.85;;;12.80;99.90;;;;;;5040429;28;20064;-69
2022/10/21 06:51:16;;;;;;;;;;;12.90;99.90;;;;;;5023831;28;20481;-67
2022/10/21 06:53:42;;;;;;;6.05;3.17;;;12.80;99.90;;;;;;5025610;28;19917;-68
2022/10/21 06:56:15;;;;;;;6.15;3.33;;;12.80;99.90;;;;;;5042383;28;20048;-69
2022/10/21 06:58:47;;;;;;;11.75;3.08;;;12.90;99.90;;;;;;5024930;28;20166;-68
2022/10/21 07:01:35;;;;;;;6.68;3.53;;;12.90;99.90;;;;;;5023318;28;20764;-68
2022/10/21 07:04:02;;;;;;;10.13;3.00;;;13.00;99.90;;;;;;5025982;28;20040;-68
2022/10/21 07:06:28;;;;;;;13.98;2.83;;;13.00;99.90;;;;;;5044435;28;20132;-68
2022/10/21 07:08:54;;;;;;;;;;;13.00;99.90;;;;;;5040473;28;20136;-69
2022/10/21 07:11:20;;;;;;;8.68;3.58;;;13.00;99.90;;;;;;5029436;28;20289;-68
2022/10/21 07:13:46;;;;;;;9.57;2.55;;;13.00;99.90;;;;;;5022416;28;20576;-69
2022/10/21 07:16:20;;;;;;;;;;;13.00;99.90;;;;;;5040318;28;20036;-68
2022/10/21 07:18:46;;;;;;;8.77;2.50;;;13.00;99.90;;;;;;5043817;28;20137;-68
2022/10/21 07:21:14;;;;;;;;;;;13.10;99.90;;;;;;5043890;28;20616;-68
2022/10/21 07:23:40;;;;;;;7.30;2.60;;;13.10;99.90;;;;;;5039526;28;20017;-69
2022/10/21 07:26:06;;;;;;;;;;;13.20;99.90;;;;;;5036147;28;20068;-69
2022/10/21 07:28:32;;;;;;;7.67;2.57;;;13.20;99.90;;;;;;5046738;28;20247;-69
2022/10/21 07:30:58;;;;;;;7.07;2.17;;;13.20;99.90;;;;;;5031746;28;20116;-68
2022/10/21 07:33:24;;;;;;;;;;;13.20;99.90;;;;;;5027753;28;20368;-68
2022/10/21 07:35:50;;;;;;;7.10;2.83;;;13.30;99.90;;;;;;5027827;28;20024;-68
2022/10/21 07:38:15;;;;;;;;;;;13.30;99.90;;;;;;5036825;28;20055;-68
2022/10/21 07:40:42;;;;;;;7.13;2.95;;;13.30;99.90;;;;;;5030642;28;20058;-68
2022/10/21 07:43:09;;;;;;;10.02;3.13;;;13.40;99.90;;;;;;5028107;28;20041;-68
2022/10/21 07:45:40;;;;;;;6.03;3.10;;;13.40;99.90;;;;;;5036505;28;20043;-68
2022/10/21 07:48:06;;;;;;;7.13;3.28;;;13.40;99.90;;;;;;5043518;28;20111;-68
2022/10/21 07:50:31;;;;;;;;;;;13.50;99.90;;;;;;5034722;28;20045;-69
2022/10/21 07:52:57;;;;;;;9.82;2.58;;;13.50;99.90;;;;;;5047449;28;19921;-69
2022/10/21 07:55:22;;;;;;;;;;;13.50;99.90;;;;;;5040736;28;20141;-69
2022/10/21 07:57:48;;;;;;;10.85;3.90;;;13.50;99.90;;;;;;5040499;28;20338;-68
2022/10/21 08:00:13;;;;;;;;;;;13.50;99.90;;;;;;5042502;28;20033;-68
2022/10/21 08:02:39;;;;;;;9.93;3.53;;;13.50;99.90;;;;;;5025847;28;20458;-68
2022/10/21 08:05:05;;;;;;;;;;;13.60;99.90;;;;;;5029976;28;20906;-68
2022/10/21 08:07:31;;;;;;;7.68;4.05;;;13.60;99.90;;;;;;5046567;28;19916;-68
2022/10/21 08:09:58;;;;;;;12.45;3.33;;;13.60;99.90;;;;;;5036757;28;20040;-68
2022/10/21 08:12:24;;;;;;;5.35;3.42;;;13.60;99.90;;;;;;5027967;28;20040;-68
2022/10/21 08:14:49;;;;;;;;;;;13.60;99.90;;;;;;5027018;28;20033;-69
2022/10/21 08:17:15;;;;;;;10.05;4.32;;;13.60;99.90;;;;;;5038808;28;19913;-68
2022/10/21 08:22:16;;;;;;;16.55;4.70;;;13.70;99.90;;;;;;5327904;23;19929;-68
2022/10/21 08:24:42;;;;;;;;;;;13.60;99.90;;;;;;4947548;28;20043;-67
2022/10/21 08:27:08;;;;;;;10.38;3.08;;;13.70;99.90;;;;;;4948389;28;20020;-68
2022/10/21 08:29:33;;;;;;;;;;;13.70;99.90;;;;;;4950514;28;20090;-68
2022/10/21 08:31:59;;;;;;;5.90;3.40;;;13.80;99.90;;;;;;4972460;28;19921;-69
2022/10/21 08:34:25;;;;;;;8.00;3.17;;;13.80;99.90;;;;;;4988433;28;20042;-69
2022/10/21 08:36:50;;;;;;;;;;;13.90;99.90;;;;;;4987405;28;20045;-69
2022/10/21 08:39:19;;;;;;;10.35;4.55;;;13.90;99.90;;;;;;4986651;28;19921;-69
2022/10/21 08:41:59;;;;;;;10.65;4.75;;;13.90;99.90;;;;;;4986322;28;20782;-70
2022/10/21 08:44:50;;;;;;;17.55;6.18;;;13.90;99.90;;;;;;4983910;28;20046;-70
2022/10/21 08:47:21;;;;;;;25.88;7.28;;;14.00;99.90;;;;;;4982220;28;20065;-69
2022/10/21 08:50:04;;;;;;;13.75;5.93;;;14.00;99.90;;;;;;4986039;28;20046;-69
2022/10/21 08:52:40;;;;;;;17.80;6.50;;;14.00;99.90;;;;;;4981467;28;20064;-68
2022/10/21 08:55:15;;;;;;;16.00;6.28;;;14.00;99.90;;;;;;4985910;28;20046;-68
2022/10/21 08:57:41;;;;;;;18.60;6.10;;;14.00;99.90;;;;;;4983458;28;20064;-68
2022/10/21 09:00:14;;;;;;;;;;;14.10;99.90;;;;;;4987826;28;20046;-68
2022/10/21 09:02:54;;;;;;;15.80;7.00;;;14.10;99.90;;;;;;4996300;28;19921;-68
2022/10/21 09:05:37;;;;;;;14.55;5.57;;;14.10;99.90;;;;;;4990622;28;20034;-68
2022/10/21 09:08:17;;;;;;;11.13;6.18;;;14.10;99.90;;;;;;4992223;28;20049;-67
2022/10/21 09:11:00;;;;;;;15.40;5.43;;;14.00;99.90;;;;;;4986238;28;20035;-68
2022/10/21 09:13:49;;;;;;;13.30;5.78;;;14.00;99.90;;;;;;4987980;28;20034;-68
2022/10/21 09:16:26;;;;;;;14.77;6.05;;;14.10;99.90;;;;;;4995213;28;20068;-68
2022/10/21 09:18:57;;;;;;;15.80;6.03;;;14.10;99.90;;;;;;4994264;28;20049;-68
2022/10/21 09:21:38;;;;;;;17.02;5.40;;;14.10;99.90;;;;;;5000490;28;20064;-68
2022/10/21 09:24:24;;;;;;;18.00;5.50;;;14.10;99.90;;;;;;4995120;28;20069;-68
2022/10/21 09:26:51;;;;;;;13.20;5.25;;;14.10;99.90;;;;;;4974196;28;20038;-68
2022/10/21 09:29:29;;;;;;;12.35;5.65;;;14.10;99.90;;;;;;4995480;28;20125;-68
2022/10/21 09:32:18;;;;;;;18.10;6.45;;;14.10;99.90;;;;;;4990770;28;20125;-67
2022/10/21 09:34:59;;;;;;;14.43;5.85;;;14.10;99.90;;;;;;4998681;28;20042;-67
2022/10/21 09:37:36;;;;;;;17.55;7.35;;;14.10;99.90;;;;;;4983743;28;20104;-67
2022/10/21 09:40:12;;;;;;;12.18;6.15;;;14.10;99.90;;;;;;4984745;28;20042;-67
2022/10/21 09:42:37;;;;;;;11.77;5.72;;;14.10;99.90;;;;;;4991243;28;20046;-67
2022/10/21 09:45:03;;;;;;;;;;;14.10;99.90;;;;;;5000649;28;20447;-67
2022/10/21 09:47:30;;;;;;;12.82;5.30;;;14.10;99.90;;;;;;4992196;28;20332;-67
2022/10/21 09:49:59;;;;;;;9.82;4.30;;;14.10;99.90;;;;;;4998596;28;20128;-67
2022/10/21 09:52:33;;;;;;;12.18;4.40;;;14.10;99.90;;;;;;4987218;28;20065;-67
2022/10/21 09:54:59;;;;;;;7.50;3.83;;;14.20;99.90;;;;;;4985244;28;20042;-67
2022/10/21 09:57:28;;;;;;;;;;;14.20;99.90;;;;;;4993116;28;20052;-67
2022/10/21 09:59:58;;;;;;;11.38;4.18;;;14.20;99.90;;;;;;4997144;28;19917;-67
2022/10/21 10:02:29;;;;;;;9.18;4.10;;;14.20;99.90;;;;;;4988977;28;20096;-67
2022/10/21 10:04:55;;;;;;;7.32;2.97;;;14.20;99.90;;;;;;4997909;28;20042;-67
2022/10/21 10:07:24;;;;;;;;;;;14.20;99.90;;;;;;4989318;28;20038;-68
2022/10/21 10:09:50;;;;;;;8.05;3.53;;;14.20;99.90;;;;;;4985306;28;20000;-69
2022/10/21 10:12:19;;;;;;;;;;;14.20;99.90;;;;;;4991101;28;20668;-69
2022/10/21 10:14:45;;;;;;;5.93;3.13;;;14.20;99.90;;;;;;4999879;28;20581;-68
2022/10/21 10:17:27;;;;;;;6.97;2.83;;;14.20;99.90;;;;;;4991758;28;20121;-69
2022/10/21 10:20:10;;;;;;;5.05;2.97;;;14.10;99.90;;;;;;4990144;28;20050;-68
2022/10/21 10:22:57;;;;;;;6.63;2.92;;;14.10;99.90;;;;;;4990847;28;20097;-69
2022/10/21 10:25:27;;;;;;;6.80;3.17;;;14.10;99.90;;;;;;4989113;28;20140;-69
2022/10/21 10:27:58;;;;;;;4.25;2.33;;;14.00;99.90;;;;;;4991790;28;20588;-68
2022/10/21 10:30:26;;;;;;;7.60;1.85;;;14.00;99.90;;;;;;4998587;28;20045;-69
2022/10/21 10:32:54;;;;;;;6.20;2.30;;;14.00;99.90;;;;;;4990105;28;20038;-68
2022/10/21 10:35:34;;;;;;;3.33;1.80;;;14.00;99.90;;;;;;5002593;28;20093;-68
2022/10/21 10:38:04;;;;;;;10.00;1.90;;;13.90;99.90;;;;;;4993486;28;20726;-68
2022/10/21 10:40:41;;;;;;;8.85;2.05;;;14.00;99.90;;;;;;4985047;28;20042;-68
2022/10/21 10:43:21;;;;;;;4.47;1.67;;;14.00;99.90;;;;;;4993252;28;20049;-67
2022/10/21 10:46:11;;;;;;;5.30;2.15;;;14.00;99.90;;;;;;4995414;28;20064;-68
2022/10/21 10:48:43;;;;;;;3.05;1.73;;;13.90;99.90;;;;;;4991032;28;20068;-67
2022/10/21 10:51:26;;;;;;;4.18;1.38;;;14.00;99.90;;;;;;4994971;28;20050;-68
2022/10/21 10:54:06;;;;;;;5.43;2.15;;;14.00;99.90;;;;;;4992543;28;20046;-69
2022/10/21 10:56:43;;;;;;;4.32;1.17;;;14.00;99.90;;;;;;4988596;28;20078;-69
2022/10/21 10:59:09;;;;;;;3.80;1.38;;;14.00;99.90;;;;;;4984575;28;20038;-68
2022/10/21 11:01:38;;;;;;;;;;;14.00;99.90;;;;;;4990238;28;20089;-68
2022/10/21 11:04:22;;;;;;;3.70;1.10;;;14.00;99.90;;;;;;4993166;28;19928;-68
2022/10/21 11:06:55;;;;;;;4.20;1.20;;;14.00;99.90;;;;;;4992092;28;21145;-68
2022/10/21 11:09:23;;;;;;;5.80;1.30;;;14.00;99.90;;;;;;4985147;28;20048;-69
2022/10/21 11:11:53;;;;;;;2.10;0.95;;;14.00;99.90;;;;;;4992616;28;20038;-68
2022/10/21 11:14:20;;;;;;;2.90;1.00;;;14.00;99.90;;;;;;4978857;28;20430;-69
2022/10/21 11:17:00;;;;;;;2.90;1.33;;;14.00;99.90;;;;;;4996935;28;20047;-68
2022/10/21 11:19:44;;;;;;;8.77;1.40;;;14.00;99.90;;;;;;4990538;28;20104;-69
2022/10/21 11:22:22;;;;;;;3.25;1.00;;;14.00;99.90;;;;;;4994911;28;20073;-68
2022/10/21 11:25:04;;;;;;;3.67;1.05;;;14.00;99.90;;;;;;4997440;28;20137;-69
2022/10/21 11:27:50;;;;;;;4.18;1.10;;;14.00;99.90;;;;;;4991411;28;20123;-69
2022/10/21 11:30:20;;;;;;;2.25;0.70;;;14.00;99.90;;;;;;4993761;28;20493;-68
2022/10/21 11:32:48;;;;;;;3.22;1.00;;;14.00;99.90;;;;;;4987143;28;20058;-69
2022/10/21 11:35:41;;;;;;;4.35;0.90;;;14.00;99.90;;;;;;4988451;28;20038;-68
2022/10/21 11:38:36;;;;;;;6.22;1.08;;;14.00;99.90;;;;;;4985771;28;20038;-69
2022/10/21 11:41:32;;;;;;;4.70;1.00;;;14.10;99.90;;;;;;4979445;28;20146;-67
2022/10/21 11:44:16;;;;;;;2.85;1.15;;;14.00;99.90;;;;;;4956929;28;20561;-67
2022/10/21 11:47:04;;;;;;;7.45;1.00;;;14.00;99.90;;;;;;4983542;28;20034;-67
2022/10/21 11:50:02;;;;;;;2.38;0.90;;;14.00;99.90;;;;;;4981024;28;20588;-67
2022/10/21 11:52:36;;;;;;;4.20;0.93;;;14.00;99.90;;;;;;4976895;28;20184;-68
2022/10/21 11:55:28;;;;;;;5.43;0.80;;;14.00;99.90;;;;;;4983275;28;20049;-68
2022/10/21 11:58:19;;;;;;;2.17;0.80;;;13.90;99.90;;;;;;4981369;28;20054;-68
2022/10/21 12:01:06;;;;;;;4.18;0.95;;;14.00;99.90;;;;;;4985169;28;20108;-68
2022/10/21 12:03:43;;;;;;;8.35;1.75;;;13.90;99.90;;;;;;4980932;28;20050;-68
2022/10/21 12:06:20;;;;;;;3.72;0.75;;;14.00;99.90;;;;;;4994724;28;20065;-68
2022/10/21 12:08:56;;;;;;;9.45;1.23;;;13.90;99.90;;;;;;4985167;28;20420;-69
2022/10/21 12:11:37;;;;;;;1.33;0.88;;;13.90;99.90;;;;;;4980995;28;20092;-68
2022/10/21 12:14:15;;;;;;;3.90;1.08;;;14.00;99.90;;;;;;4993554;28;20042;-69
2022/10/21 12:16:42;;;;;;;6.75;0.90;;;14.00;99.90;;;;;;4996556;28;20050;-69
2022/10/21 12:19:11;;;;;;;1.73;0.90;;;14.00;99.90;;;;;;4997275;28;20128;-68
2022/10/21 12:21:41;;;;;;;2.90;0.82;;;14.10;99.90;;;;;;4996031;28;20038;-69
2022/10/21 12:24:10;;;;;;;2.03;0.70;;;14.20;99.90;;;;;;4994184;28;20046;-69
2022/10/21 12:26:47;;;;;;;6.85;1.00;;;14.20;99.90;;;;;;4995895;28;20152;-69
2022/10/21 12:29:36;;;;;;;10.13;1.05;;;14.30;99.90;;;;;;4997510;28;20058;-69
2022/10/21 12:32:25;;;;;;;5.07;1.85;;;14.40;99.90;;;;;;4995230;28;20141;-69
2022/10/21 12:34:53;;;;;;;6.03;1.33;;;14.40;99.90;;;;;;4997059;28;20429;-69
2022/10/21 12:38:03;;;;;;;1.75;0.70;;;14.50;99.90;;;;;;4996226;28;20050;-68
2022/10/21 12:40:28;;;;;;;1.67;0.80;;;14.60;99.90;;;;;;4983408;28;20050;-69
2022/10/21 12:43:01;;;;;;;;;;;14.60;99.90;;;;;;4994192;28;20101;-69
2022/10/21 12:45:32;;;;;;;1.92;0.63;;;14.60;99.90;;;;;;5003318;28;19917;-69
2022/10/21 12:47:58;;;;;;;4.03;0.65;;;14.60;99.90;;;;;;4991813;28;20628;-69
2022/10/21 12:50:28;;;;;;;;;;;14.60;99.90;;;;;;5002628;28;20054;-69
2022/10/21 12:53:31;;;;;;;3.20;0.70;;;14.60;99.90;;;;;;4991875;28;19991;-69
2022/10/21 12:55:59;;;;;;;3.33;1.23;;;14.50;99.90;;;;;;5002054;28;20740;-69
2022/10/21 12:58:45;;;;;;;2.55;0.70;;;14.50;99.90;;;;;;4983750;28;20045;-69
2022/10/21 13:01:36;;;;;;;0.77;0.50;;;14.50;99.90;;;;;;4985607;28;20046;-69
2022/10/21 13:04:02;;;;;;;1.55;0.77;;;14.40;99.90;;;;;;4987343;28;20118;-69
2022/10/21 13:06:46;;;;;;;;;;;14.40;99.90;;;;;;4987286;28;20133;-70
2022/10/21 13:09:38;;;;;;;1.00;0.57;;;14.40;99.90;;;;;;4987213;28;19929;-69
2022/10/21 13:12:09;;;;;;;5.20;0.85;;;14.50;99.90;;;;;;4985676;28;20108;-69
2022/10/21 13:14:47;;;;;;;2.05;0.80;;;14.50;99.90;;;;;;4986388;28;20044;-71
2022/10/21 13:17:21;;;;;;;3.22;0.80;;;14.60;99.90;;;;;;4986342;28;20050;-69
2022/10/21 13:19:47;;;;;;;1.77;0.70;;;14.60;99.90;;;;;;4987216;28;20038;-70
2022/10/21 13:22:32;;;;;;;;;;;14.70;99.90;;;;;;4986494;28;20042;-68
2022/10/21 13:25:28;;;;;;;4.20;0.98;;;14.80;99.90;;;;;;4986270;28;19953;-68